Little Rock, AR (72201)

2:53 AM CDT on September 03, 2014 (GMT -0500)
Heights | Change Station
CLOSE
Current Station
Personal Weather Station
Location: Little Rock, AR
Elevation: 581 ft
Nearby Weather Stations

Elev 581 ft 34.77 °N, 92.33 °W | Updated 17 seconds ago

Scattered Clouds
Scattered Clouds
72.7 °F
Feels Like 72.7 °F
N
0.0
Wind Variable Wind from North
Gusts 0.0 mph

Today
High -- | Low -- °F
--% Chance of Precip.
Yesterday
High -- | Low -- °F
Precip. -- in
6:43 AM 7:32 PM
First Quarter, 60% visible
Pressure 30.01 in
Visibility 10.0 miles
Clouds Few 1000 ft
Scattered Clouds 2900 ft
Dew Point 71 °F
Humidity 95%
Rainfall 0.00 in
Snow Depth Not available.
UV 0 out of 12
Pollen 10.10 out of 12
Ozone Good
PM2.5 Good
Flu Activity Not available.
METAR KLIT 030653Z 00000KT 10SM FEW010 SCT029 23/22 A3001 RMK AO2 SLP162 CIG RGD T02330217

More Conditions Fewer Conditions

Pressure 30.01 in
Visibility 10.0 miles
Clouds Few 1000 ft
Scattered Clouds 2900 ft
Dew Point 71 °F
Humidity 95%
Rainfall 0.00 in
Snow Depth Not available.
UV 0 out of 12
Pollen 10.10 out of 12
Ozone Good
PM2.5 Good
Flu Activity Not available.
METAR KLIT 030653Z 00000KT 10SM FEW010 SCT029 23/22 A3001 RMK AO2 SLP162 CIG RGD T02330217

More Conditions Fewer Conditions

10-Day Weather Forecast

Almanac

Astronomy

Sep. 03, 2014 Rise Set
Actual Time 6:43 AM CDT 7:32 PM CDT
Civil Twilight 6:17 AM CDT 7:58 PM CDT
Nautical Twilight 5:47 AM CDT 8:28 PM CDT
Astronomical Twilight 5:16 AM CDT 8:59 PM CDT
Moon 3:07 PM CDT 12:45 AM CDT
Length of Visible Light 13h 40m
Length of Day
12h 49m
Tomorrow will be 2m 5s shorter.
First Quarter, 60% of the Moon is Illuminated
Today
First Quarter
Sep 8
Full
Sep 15
Last Quarter
Sep 24
New
Oct 1
First Quarter

Today's Extremes

State Highs State Lows

Community

WunderPhotos

Upload Photos

1,749,899 photos uploaded!

Nearby

Air Quality

  Air Quality AQ Index Pollutant
Yesterday Good
OZONE
Yesterday Good
PM2.5
Current Good
PM2.5
Current Good
OZONE
Wednesday Good
OZONE

Snow Depth

Station Depth Elevation
No new snow has been reported.

Earthquake Activity

City Distance Mag. Time & Date
No recent earthquake activity has been reported nearby.
Minimum magnitude displayed is 2.5.

Coastal Water Temperatures

Place Temperature
No Stations Reporting

Nearby Weather Stations